Time;durP1;ratioP1;P1;durP2;ratioP2;P2;SDS_P1;SDS_P2;PMS_P1;PMS_P2;Temp;Humidity;BMP_temperature;BMP_pressure;BME280_temperature;BME280_humidity;BME280_pressure;Samples;Min_cycle;Max_cycle;Signal;HPM_P1;HPM_P2
2023/02/26 00:01:37;;;;;;;5.53;1.92;;;;;;;0.04;96.47;98668.25;1599243;89;21159;-61
2023/02/26 00:07:33;;;;;;;5.60;1.75;;;;;;;0.18;96.73;98687.59;1650345;87;21141;-62
2023/02/26 00:14:03;;;;;;;2.60;1.30;;;;;;;0.18;96.45;98692.73;1649963;86;21131;-61
2023/02/26 00:19:59;;;;;;;5.03;1.60;;;;;;;0.17;96.54;98702.60;1648532;86;21614;-60
2023/02/26 00:26:27;;;;;;;3.05;1.10;;;;;;;0.08;96.39;98705.34;1648652;86;21046;-62
2023/02/26 00:32:58;;;;;;;0.72;0.50;;;;;;;0.02;96.38;98708.48;1649255;86;21094;-60
2023/02/26 00:40:06;;;;;;;4.67;1.00;;;;;;;-0.13;96.24;98717.36;1648623;86;21062;-62
2023/02/26 00:47:06;;;;;;;2.90;1.10;;;;;;;-0.35;96.22;98722.89;1630942;87;21607;-62
2023/02/26 00:53:37;;;;;;;2.42;0.98;;;;;;;-0.55;96.17;98735.25;1648348;87;21071;-63
2023/02/26 01:00:12;;;;;;;4.47;1.20;;;;;;;-0.65;96.47;98735.00;1655158;87;21071;-60
2023/02/26 01:06:50;;;;;;;2.35;1.15;;;;;;;-0.59;96.66;98748.98;1655438;86;21074;-63
2023/02/26 01:13:21;;;;;;;5.72;1.20;;;;;;;-0.51;96.73;98752.26;1648569;87;21122;-62
2023/02/26 01:19:44;;;;;;;4.70;0.82;;;;;;;-0.41;96.90;98762.77;1648489;87;21632;-63
2023/02/26 01:26:04;;;;;;;1.22;0.80;;;;;;;-0.33;96.76;98757.06;1648538;87;21075;-60
2023/02/26 01:33:03;;;;;;;4.22;1.00;;;;;;;-0.27;96.69;98772.33;1648446;87;21578;-61
2023/02/26 01:39:48;;;;;;;1.57;0.80;;;;;;;-0.30;96.79;98782.66;1648480;87;21077;-63
2023/02/26 01:46:41;;;;;;;1.52;0.70;;;;;;;-0.25;97.09;98801.83;1648392;87;21066;-62
2023/02/26 01:53:26;;;;;;;0.88;0.50;;;;;;;-0.12;97.22;98807.55;1648730;87;21115;-62
2023/02/26 01:59:56;;;;;;;0.88;0.30;;;;;;;-0.27;96.83;98818.52;1648433;87;21137;-63
2023/02/26 02:06:29;;;;;;;1.70;0.50;;;;;;;-0.25;97.10;98828.31;1648436;87;21145;-63
2023/02/26 02:13:24;;;;;;;3.10;0.60;;;;;;;-0.19;97.21;98835.05;1648514;87;21093;-63
2023/02/26 02:19:53;;;;;;;0.93;0.80;;;;;;;-0.14;97.28;98847.38;1676941;85;21561;-62
2023/02/26 02:26:25;;;;;;;0.72;0.50;;;;;;;-0.06;97.41;98862.61;1677342;85;21096;-61
2023/02/26 02:33:01;;;;;;;3.47;0.95;;;;;;;-0.07;97.28;98863.49;1677197;85;21069;-62
2023/02/26 02:39:48;;;;;;;2.37;0.85;;;;;;;-0.10;97.24;98868.69;1677225;85;21190;-62
2023/02/26 02:46:29;;;;;;;4.12;1.15;;;;;;;-0.11;97.41;98872.10;1677179;85;21060;-59
2023/02/26 02:53:04;;;;;;;2.77;0.95;;;;;;;-0.09;97.38;98880.63;1676895;85;21906;-62
2023/02/26 02:59:43;;;;;;;2.42;0.80;;;;;;;-0.09;97.60;98899.43;1676945;85;21116;-63
2023/02/26 03:06:04;;;;;;;3.33;0.62;;;;;;;-0.09;97.54;98917.84;1657770;86;21058;-61
2023/02/26 03:12:21;;;;;;;3.12;1.00;;;;;;;-0.04;97.79;98918.17;1657670;86;21122;-61
2023/02/26 03:26:16;;;;;;;6.97;1.65;;;;;;;0.13;98.00;98941.42;1666238;84;21616;-61
2023/02/26 03:33:05;;;;;;;3.22;1.10;;;;;;;0.23;98.04;98954.95;1664271;84;21769;-68
2023/02/26 03:39:52;;;;;;;3.25;0.90;;;;;;;0.18;97.48;98948.61;1670652;84;21075;-64
2023/02/26 03:46:30;;;;;;;2.12;0.90;;;;;;;0.13;97.46;98951.24;1700861;84;21138;-63
2023/02/26 03:53:06;;;;;;;2.72;0.90;;;;;;;0.07;97.12;98982.59;1701052;84;21054;-65
2023/02/26 03:59:07;;;;;;;3.25;1.15;;;;;;;0.08;97.09;98995.39;1700339;84;21154;-65
2023/02/26 04:05:51;;;;;;;3.05;0.90;;;;;;;0.05;97.00;99009.56;1701626;84;21133;-67
2023/02/26 04:12:30;;;;;;;3.95;1.25;;;;;;;0.02;96.93;99014.75;1700925;84;21078;-64
2023/02/26 04:19:08;;;;;;;4.58;1.60;;;;;;;-0.05;96.87;99038.39;1700386;84;21423;-63
2023/02/26 04:29:11;;;;;;;3.67;1.45;;;;;;;-0.10;96.95;99049.59;1705608;84;21077;-59
2023/02/26 04:35:45;;;;;;;4.97;1.52;;;;;;;-0.06;96.98;99060.20;1706082;84;21085;-61
2023/02/26 04:42:20;;;;;;;6.42;1.42;;;;;;;-0.01;97.21;99072.10;1706934;83;21074;-67
2023/02/26 04:48:53;;;;;;;5.87;1.52;;;;;;;0.01;97.10;99078.52;1705944;84;21196;-63
2023/02/26 04:55:25;;;;;;;3.92;1.10;;;;;;;0.01;96.87;99083.64;1713618;83;21751;-68
2023/02/26 05:01:57;;;;;;;3.35;1.30;;;;;;;0.00;96.79;99093.51;1713394;84;21109;-69
2023/02/26 05:08:29;;;;;;;3.40;0.98;;;;;;;-0.10;96.55;99096.63;1713932;83;21070;-68
2023/02/26 05:15:01;;;;;;;3.22;1.02;;;;;;;-0.13;96.70;99112.51;1705807;84;21089;-68
2023/02/26 05:21:34;;;;;;;7.30;2.70;;;;;;;-0.11;96.79;99127.42;1706328;84;21070;-62
2023/02/26 05:31:43;;;;;;;7.17;2.45;;;;;;;-0.05;96.85;99141.48;1705592;84;21058;-60
2023/02/26 05:38:14;;;;;;;4.12;1.30;;;;;;;-0.05;96.72;99167.15;1701124;84;21098;-64
2023/02/26 05:44:46;;;;;;;4.70;1.72;;;;;;;-0.03;96.81;99180.78;1704984;84;21941;-66
2023/02/26 05:51:19;;;;;;;3.35;1.27;;;;;;;0.00;96.75;99183.34;1708843;84;21626;-57
2023/02/26 05:57:50;;;;;;;2.75;1.12;;;;;;;0.03;96.76;99194.84;1706236;84;21123;-61
2023/02/26 06:04:07;;;;;;;4.78;1.20;;;;;;;0.01;96.52;99208.13;1705926;84;21154;-58
2023/02/26 06:10:42;;;;;;;4.37;1.17;;;;;;;0.00;96.47;99216.70;1705803;83;21077;-61
2023/02/26 06:17:15;;;;;;;7.95;1.90;;;;;;;0.08;96.56;99227.70;1705419;84;21332;-59
2023/02/26 06:23:45;;;;;;;5.37;1.25;;;;;;;0.12;96.52;99232.38;1706219;84;21081;-58
2023/02/26 06:33:25;;;;;;;7.50;1.50;;;;;;;0.21;96.41;99262.63;1726934;83;21122;-62
2023/02/26 06:39:42;;;;;;;5.62;1.65;;;;;;;0.35;96.55;99255.19;1726484;83;21051;-64
2023/02/26 06:46:16;;;;;;;4.05;1.42;;;;;;;0.46;96.61;99282.86;1726897;83;21078;-62
2023/02/26 06:52:45;;;;;;;3.77;1.62;;;;;;;0.52;96.44;99291.77;1708573;84;21995;-62
2023/02/26 06:55:20;;;;;;;6.28;1.65;;;;;;;0.55;96.37;99298.14;1708427;83;21039;-63
2023/02/26 06:57:49;;;;;;;4.85;1.45;;;;;;;0.55;96.20;99300.70;1709685;83;21091;-63
2023/02/26 07:00:21;;;;;;;3.77;1.30;;;;;;;0.65;96.44;99303.58;1709997;84;21075;-65
2023/02/26 07:02:53;;;;;;;5.35;1.80;;;;;;;0.73;96.35;99302.60;1711138;84;21036;-64
2023/02/26 07:05:24;;;;;;;2.80;1.90;;;;;;;0.78;96.20;99301.67;1711223;83;21058;-64
2023/02/26 07:07:56;;;;;;;5.55;2.15;;;;;;;0.83;96.18;99309.33;1711389;84;21127;-63
2023/02/26 07:10:32;;;;;;;;;;;;;;;0.91;96.32;99316.49;1718351;82;21094;-64
2023/02/26 07:13:04;;;;;;;5.58;1.80;;;;;;;0.98;96.19;99326.23;1726875;83;20131;-63
2023/02/26 07:15:36;;;;;;;4.17;1.87;;;;;;;1.05;96.20;99329.98;1726846;83;21046;-62
2023/02/26 07:18:08;;;;;;;7.58;1.90;;;;;;;1.10;96.10;99333.34;1726634;83;21519;-63
2023/02/26 07:20:40;;;;;;;4.33;3.12;;;;;;;1.17;95.94;99335.81;1726563;83;21017;-64
2023/02/26 07:23:10;;;;;;;5.15;2.70;;;;;;;1.20;96.10;99335.77;1704299;83;20999;-62
2023/02/26 07:25:41;;;;;;;8.23;2.70;;;;;;;1.30;96.03;99346.33;1726775;83;21046;-65
2023/02/26 07:28:15;;;;;;;4.37;1.77;;;;;;;1.33;95.74;99347.57;1726797;83;21129;-65
2023/02/26 07:30:47;;;;;;;3.85;1.80;;;;;;;1.35;95.85;99353.55;1716434;82;21094;-63
2023/02/26 07:33:17;;;;;;;3.98;1.95;;;;;;;1.40;95.86;99364.62;1711157;83;21027;-65
2023/02/26 07:35:49;;;;;;;5.40;2.17;;;;;;;1.44;95.83;99367.98;1711372;83;21023;-64
2023/02/26 07:38:22;;;;;;;7.12;2.42;;;;;;;1.51;96.08;99368.28;1711313;84;21011;-59
2023/02/26 07:41:00;;;;;;;6.83;2.25;;;;;;;1.59;95.96;99377.17;1711456;83;21059;-65
2023/02/26 07:43:31;;;;;;;7.58;2.05;;;;;;;1.68;96.11;99379.17;1711045;84;21878;-63
2023/02/26 07:46:03;;;;;;;3.58;1.82;;;;;;;1.79;96.11;99381.13;1711312;83;21016;-63
2023/02/26 07:48:36;;;;;;;4.22;2.00;;;;;;;1.88;96.08;99386.55;1711369;83;20972;-63
2023/02/26 07:51:07;;;;;;;7.90;1.92;;;;;;;1.87;95.79;99386.13;1711315;84;20996;-65
2023/02/26 07:53:39;;;;;;;5.67;1.67;;;;;;;1.89;95.73;99393.83;1711487;83;21031;-65
2023/02/26 07:56:11;;;;;;;4.35;1.82;;;;;;;1.87;95.71;99401.57;1711327;83;21876;-65
2023/02/26 07:58:41;;;;;;;4.87;2.15;;;;;;;1.91;95.92;99407.54;1711471;84;21060;-65
2023/02/26 08:01:13;;;;;;;3.77;1.92;;;;;;;1.93;95.80;99406.64;1711150;83;21043;-65
2023/02/26 08:03:46;;;;;;;4.45;1.82;;;;;;;1.95;95.71;99421.60;1711079;83;21122;-64
2023/02/26 08:06:23;;;;;;;5.22;2.00;;;;;;;1.98;95.87;99422.83;1710674;84;21079;-65
2023/02/26 08:08:55;;;;;;;5.75;2.22;;;;;;;2.11;95.95;99420.06;1710732;84;21026;-66
2023/02/26 08:11:25;;;;;;;4.70;2.00;;;;;;;2.32;96.10;99424.81;1711113;84;21039;-64
2023/02/26 08:13:58;;;;;;;7.03;2.20;;;;;;;2.45;96.02;99427.58;1711240;83;21043;-62
2023/02/26 08:16:31;;;;;;;8.48;2.45;;;;;;;2.62;96.08;99431.56;1711447;84;21114;-67
2023/02/26 08:19:02;;;;;;;7.00;3.27;;;;;;;2.65;95.89;99445.67;1714943;83;21016;-63
2023/02/26 08:21:39;;;;;;;12.78;4.75;;;;;;;2.71;95.77;99440.84;1711322;83;21054;-66
2023/02/26 08:24:11;;;;;;;8.60;3.90;;;;;;;2.65;95.60;99448.25;1710993;83;21095;-66
2023/02/26 08:26:45;;;;;;;7.85;3.72;;;;;;;2.67;95.92;99451.66;1690975;84;21066;-65
2023/02/26 08:29:17;;;;;;;5.70;3.30;;;;;;;2.76;96.01;99448.89;1711441;83;21884;-68
2023/02/26 08:31:51;;;;;;;6.55;4.12;;;;;;;2.94;96.26;99462.28;1710991;82;21110;-66
2023/02/26 08:34:22;;;;;;;7.10;3.58;;;;;;;3.12;96.25;99454.19;1710874;83;21003;-64
2023/02/26 08:36:55;;;;;;;4.40;2.10;;;;;;;3.33;96.17;99457.60;1710779;84;21890;-64
2023/02/26 08:39:25;;;;;;;6.45;3.02;;;;;;;3.67;96.42;99460.70;1711323;84;20992;-65
2023/02/26 08:41:57;;;;;;;3.72;2.65;;;;;;;4.30;97.59;99467.34;1711443;84;21155;-66
2023/02/26 08:44:27;;;;;;;4.90;3.37;;;;;;;5.05;96.87;99466.16;1711168;84;21031;-65
2023/02/26 08:50:27;;;;;;;6.92;2.75;;;;;;;6.98;97.45;99456.88;1710858;84;21131;-64
2023/02/26 08:56:57;;;;;;;6.92;2.50;;;;;;;6.74;94.76;99475.01;1711018;84;21086;-64
2023/02/26 08:59:27;;;;;;;4.08;2.30;;;;;;;6.25;94.77;99480.61;1711150;83;21040;-58
2023/02/26 09:05:58;;;;;;;6.87;2.75;;;;;;;5.69;95.09;99500.09;1711387;84;21086;-60
2023/02/26 09:08:32;;;;;;;5.55;2.95;;;;;;;5.41;95.50;99495.74;1711285;84;21039;-63
2023/02/26 09:14:51;;;;;;;6.50;3.12;;;;;;;5.94;96.58;99504.94;1710416;84;21126;-65
2023/02/26 09:21:23;;;;;;;5.30;2.40;;;;;;;6.24;94.67;99516.48;1709689;84;22025;-64
2023/02/26 09:24:05;;;;;;;3.05;1.70;;;;;;;6.04;95.55;99517.14;1708187;83;21954;-61
2023/02/26 09:26:39;;;;;;;6.25;1.77;;;;;;;6.50;96.50;99526.02;1711051;84;21095;-61
2023/02/26 09:32:59;;;;;;;4.12;1.70;;;;;;;6.17;94.63;99540.94;1737872;82;21078;-66
2023/02/26 09:39:33;;;;;;;6.67;2.15;;;;;;;4.98;95.03;99546.13;1708530;84;21113;-64
2023/02/26 09:42:12;;;;;;;5.00;2.47;;;;;;;4.66;95.64;99554.75;1668465;84;21109;-63
2023/02/26 09:48:44;;;;;;;7.08;2.80;;;;;;;4.38;96.40;99567.53;1706110;83;21085;-67
2023/02/26 09:51:18;;;;;;;7.58;3.20;;;;;;;4.36;96.39;99573.16;1710485;83;21101;-64
2023/02/26 09:53:59;;;;;;;8.98;4.12;;;;;;;4.42;96.59;99579.48;1710203;84;21041;-66
2023/02/26 09:56:33;;;;;;;6.60;2.70;;;;;;;4.51;96.32;99584.44;1707398;83;21062;-69
2023/02/26 09:59:06;;;;;;;10.13;3.15;;;;;;;4.46;95.47;99581.12;1709927;84;21042;-66
2023/02/26 10:05:49;;;;;;;8.90;3.70;;;;;;;4.91;96.37;99601.53;1710235;84;21132;-64
2023/02/26 10:08:38;;;;;;;4.72;2.72;;;;;;;4.89;95.09;99611.06;1710852;83;21896;-60
2023/02/26 10:11:34;;;;;;;7.20;2.45;;;;;;;4.72;94.95;99611.48;1709949;84;21069;-67
2023/02/26 10:14:19;;;;;;;7.53;2.10;;;;;;;4.49;94.85;99617.23;1710573;84;21076;-66
2023/02/26 10:16:55;;;;;;;5.25;2.15;;;;;;;4.17;94.64;99612.80;1710711;84;21093;-65
2023/02/26 10:19:30;;;;;;;6.62;2.20;;;;;;;3.98;95.04;99631.77;1710664;84;21112;-66
2023/02/26 10:22:08;;;;;;;3.70;1.75;;;;;;;3.92;95.01;99638.33;1686381;84;21868;-62
2023/02/26 10:24:59;;;;;;;4.40;1.65;;;;;;;3.83;94.85;99641.12;1700678;83;21546;-66
2023/02/26 10:27:46;;;;;;;4.33;2.22;;;;;;;3.89;95.33;99638.41;1688830;85;21180;-64
2023/02/26 10:30:48;;;;;;;4.87;2.40;;;;;;;4.04;95.51;99636.34;1707781;84;21177;-64
2023/02/26 10:33:46;;;;;;;6.15;1.60;;;;;;;4.60;95.84;99643.69;1703065;83;21078;-62
2023/02/26 10:36:25;;;;;;;4.35;1.87;;;;;;;5.18;95.59;99648.27;1702360;84;21104;-63
2023/02/26 10:39:09;;;;;;;3.58;1.50;;;;;;;5.61;95.07;99647.50;1697755;84;21079;-65
2023/02/26 10:46:34;;;;;;;3.25;1.22;;;;;;;6.72;94.75;99658.44;1698176;84;21082;-66
2023/02/26 10:48:59;;;;;;;2.87;1.12;;;;;;;7.57;95.29;99670.72;1687424;84;21904;-66
2023/02/26 10:51:43;;;;;;;3.67;1.10;;;;;;;7.68;94.64;99663.84;1692690;84;21873;-67
2023/02/26 10:54:32;;;;;;;4.42;1.27;;;;;;;7.45;93.44;99667.23;1698355;84;21963;-64
2023/02/26 10:57:18;;;;;;;2.25;0.80;;;;;;;7.09;93.44;99679.31;1698161;84;21209;-61
2023/02/26 10:59:48;;;;;;;1.85;0.78;;;;;;;6.81;94.49;99689.75;1698422;83;21076;-62
2023/02/26 11:02:44;;;;;;;2.60;1.25;;;;;;;6.84;95.30;99686.60;1698555;84;21039;-61
2023/02/26 11:05:36;;;;;;;3.33;1.50;;;;;;;7.17;95.50;99688.99;1698038;84;21843;-67
2023/02/26 11:08:18;;;;;;;3.05;0.80;;;;;;;7.27;95.51;99696.84;1698704;84;21348;-66
2023/02/26 11:11:03;;;;;;;2.30;1.00;;;;;;;7.09;95.14;99698.78;1696949;84;21075;-65
2023/02/26 11:17:34;;;;;;;4.12;1.50;;;;;;;6.43;94.70;99696.53;1699200;84;21099;-68
2023/02/26 11:24:11;;;;;;;6.35;2.20;;;;;;;6.77;95.79;99704.55;1698247;84;21883;-65
2023/02/26 11:30:44;;;;;;;5.00;2.02;;;;;;;6.52;94.79;99716.60;1567486;88;21120;-64
2023/02/26 11:33:30;;;;;;;2.30;1.42;;;;;;;6.01;94.19;99715.06;1571833;90;21128;-63
2023/02/26 11:36:12;;;;;;;4.45;2.05;;;;;;;5.78;94.33;99721.31;1574928;91;21080;-63
2023/02/26 11:38:51;;;;;;;1.87;0.98;;;;;;;5.51;94.00;99727.63;1570974;91;21127;-64
2023/02/26 11:41:24;;;;;;;4.15;1.75;;;;;;;5.49;94.87;99721.66;1576560;91;21104;-66
2023/02/26 11:44:26;;;;;;;3.75;1.90;;;;;;;5.55;94.86;99726.67;1576859;91;21131;-71
2023/02/26 11:47:01;;;;;;;2.35;1.22;;;;;;;5.84;95.49;99730.20;1554873;91;22014;-70
2023/02/26 11:49:34;;;;;;;2.95;1.32;;;;;;;6.95;95.69;99727.79;1576874;91;21153;-65
2023/02/26 11:52:26;;;;;;;2.08;1.30;;;;;;;7.04;94.28;99735.73;1555691;91;21627;-60
2023/02/26 11:55:08;;;;;;;;;;;;;;;;;;;;;
2023/02/26 11:57:32;;;;;;;3.75;1.37;;;;;;;6.81;93.24;99745.10;1560681;91;21208;-64
2023/02/26 12:00:07;;;;;;;4.80;1.37;;;;;;;6.47;93.32;99750.48;1576254;91;22011;-60
2023/02/26 12:02:42;;;;;;;2.72;1.10;;;;;;;6.21;93.32;99746.04;1574323;91;21129;-59
2023/02/26 12:05:25;;;;;;;1.92;1.37;;;;;;;5.93;93.52;99753.30;1688233;84;21076;-66
2023/02/26 12:07:51;;;;;;;3.53;1.27;;;;;;;5.56;93.46;99762.03;1705613;84;21781;-62
2023/02/26 12:10:37;;;;;;;4.55;1.70;;;;;;;5.38;93.68;99758.64;1708253;84;21118;-60
2023/02/26 12:13:29;;;;;;;3.60;1.67;;;;;;;5.15;93.79;99761.36;1707327;83;21107;-64
2023/02/26 12:16:15;;;;;;;;;;;;;;;;;;;;;
2023/02/26 12:19:10;;;;;;;6.83;2.00;;;;;;;5.08;94.44;99767.56;1706334;84;21095;-60
2023/02/26 12:22:01;;;;;;;2.05;1.25;;;;;;;5.12;94.25;99766.59;1705486;84;21091;-67
2023/02/26 12:24:37;;;;;;;2.40;1.30;;;;;;;5.08;93.57;99762.38;1706210;84;21107;-65
2023/02/26 12:27:29;;;;;;;3.55;1.22;;;;;;;5.03;93.63;99769.41;1708765;83;21080;-60
2023/02/26 12:30:33;;;;;;;2.22;1.17;;;;;;;4.95;93.30;99766.14;1708600;83;21091;-64
2023/02/26 12:33:11;;;;;;;4.08;1.62;;;;;;;4.82;93.31;99776.39;1707086;84;21605;-61
2023/02/26 12:35:59;;;;;;;5.12;1.70;;;;;;;4.77;93.48;99787.28;1724240;82;21352;-61
2023/02/26 12:38:42;;;;;;;6.87;2.17;;;;;;;4.75;93.42;99786.45;1724108;83;21156;-62
2023/02/26 12:42:07;;;;;;;6.47;2.05;;;;;;;4.63;92.79;99787.14;1722448;81;21595;-59
2023/02/26 12:44:51;;;;;;;7.17;2.22;;;;;;;4.41;92.71;99782.02;1723564;83;21057;-61
2023/02/26 12:48:15;;;;;;;4.95;1.65;;;;;;;4.10;92.87;99795.56;1722037;83;21572;-59
2023/02/26 12:50:53;;;;;;;5.58;1.80;;;;;;;3.99;92.95;99784.59;1723123;83;21093;-62
2023/02/26 12:53:48;;;;;;;6.10;1.80;;;;;;;3.93;93.11;99795.05;1723257;83;21112;-61
2023/02/26 12:56:52;;;;;;;4.42;1.80;;;;;;;4.00;93.21;99788.87;1724484;82;21847;-60
2023/02/26 12:59:49;;;;;;;4.55;1.50;;;;;;;4.03;93.13;99790.09;1724311;83;21017;-64
2023/02/26 13:07:10;;;;;;;5.92;1.47;;;;;;;3.74;92.69;99794.53;1724760;83;21053;-65
2023/02/26 13:14:05;;;;;;;4.62;1.17;;;;;;;3.51;92.82;99800.11;1724679;83;21249;-62
2023/02/26 13:16:43;;;;;;;3.55;1.60;;;;;;;3.32;92.56;99805.56;1683885;85;22053;-62
2023/02/26 13:19:35;;;;;;;2.77;1.40;;;;;;;3.27;92.89;99815.11;1684458;85;21026;-64
2023/02/26 13:22:37;;;;;;;6.92;1.67;;;;;;;3.23;92.82;99818.63;1638146;87;21610;-64
2023/02/26 13:25:23;;;;;;;4.28;1.77;;;;;;;3.23;93.13;99819.92;1638140;87;21544;-62
2023/02/26 13:27:57;;;;;;;4.45;1.47;;;;;;;3.11;92.84;99821.41;1638076;87;21044;-63
2023/02/26 13:30:41;;;;;;;4.37;1.60;;;;;;;2.92;92.61;99823.41;1638121;87;21056;-60
2023/02/26 13:33:18;;;;;;;4.80;1.92;;;;;;;2.78;92.82;99823.59;1638524;86;21104;-61
2023/02/26 13:35:51;;;;;;;;;;;;;;;2.83;92.99;99824.80;1642801;87;21073;-60
2023/02/26 13:39:03;;;;;;;3.22;1.62;;;;;;;2.88;93.03;99827.73;1640240;87;20273;-62
2023/02/26 13:41:40;;;;;;;5.78;2.22;;;;;;;2.93;93.04;99825.54;1640084;87;21126;-62
2023/02/26 13:44:32;;;;;;;3.65;1.92;;;;;;;2.95;93.10;99825.09;1639688;87;21042;-62
2023/02/26 13:47:53;;;;;;;5.33;2.10;;;;;;;2.95;92.91;99826.37;1640017;87;21115;-62
2023/02/26 13:50:32;;;;;;;3.37;1.80;;;;;;;2.91;92.76;99835.45;1612820;89;21100;-66
2023/02/26 13:53:32;;;;;;;3.72;2.05;;;;;;;2.93;93.02;99831.98;1612378;89;21254;-62
2023/02/26 13:56:17;;;;;;;5.72;1.87;;;;;;;2.95;92.80;99837.98;1637688;84;21053;-66
2023/02/26 13:59:24;;;;;;;2.93;1.50;;;;;;;2.78;92.92;99842.09;1602957;88;21124;-63
2023/02/26 14:02:06;;;;;;;3.35;1.47;;;;;;;2.74;93.23;99850.28;1587598;90;21360;-63
2023/02/26 14:04:51;;;;;;;2.72;1.67;;;;;;;2.85;93.09;99835.52;1581474;90;21008;-65
2023/02/26 14:07:49;;;;;;;4.40;1.62;;;;;;;2.88;92.89;99843.20;1585642;90;21039;-65
2023/02/26 14:10:51;;;;;;;4.92;1.98;;;;;;;2.87;92.85;99840.66;1536245;93;21120;-62
2023/02/26 14:13:27;;;;;;;5.17;1.87;;;;;;;2.87;92.82;99854.41;1532797;93;21568;-63
2023/02/26 14:16:27;;;;;;;5.33;2.40;;;;;;;2.78;92.66;99857.12;1536365;93;21097;-65
2023/02/26 14:19:16;;;;;;;3.40;1.80;;;;;;;2.77;92.86;99852.81;1533434;93;21148;-65
2023/02/26 14:21:57;;;;;;;3.87;2.00;;;;;;;2.69;92.63;99859.83;1535841;93;21118;-63
2023/02/26 14:28:39;;;;;;;5.42;1.90;;;;;;;2.52;93.01;99856.58;1538596;93;21148;-69
2023/02/26 14:31:21;;;;;;;4.45;1.75;;;;;;;2.55;93.29;99857.42;1538785;92;21290;-66
2023/02/26 14:37:41;;;;;;;5.87;1.50;;;;;;;2.80;93.52;99855.38;1542602;90;21097;-69
2023/02/26 14:44:26;;;;;;;4.90;1.70;;;;;;;2.90;93.60;99859.52;1583301;90;21128;-69
2023/02/26 14:51:21;;;;;;;4.12;2.10;;;;;;;3.01;93.52;99866.27;1674967;86;21107;-69
2023/02/26 14:54:33;;;;;;;4.90;2.47;;;;;;;2.93;93.54;99873.25;1724526;83;21960;-67
2023/02/26 14:57:34;;;;;;;7.28;2.40;;;;;;;2.81;93.38;99872.55;1723935;83;21122;-69
2023/02/26 15:00:22;;;;;;;4.40;1.90;;;;;;;2.71;93.49;99882.55;1724111;83;21082;-69
2023/02/26 15:03:07;;;;;;;3.98;1.77;;;;;;;2.66;93.58;99885.62;1724305;83;21086;-69
2023/02/26 15:06:07;;;;;;;4.20;1.45;;;;;;;2.50;93.22;99886.70;1724416;83;21043;-66
2023/02/26 15:09:22;;;;;;;3.08;1.50;;;;;;;2.40;93.63;99884.20;1703760;84;21108;-69
2023/02/26 15:12:15;;;;;;;5.78;1.98;;;;;;;2.27;93.53;99878.80;1709110;83;21095;-70
2023/02/26 15:15:13;;;;;;;3.33;1.67;;;;;;;2.17;93.56;99886.19;1708934;84;21011;-69
2023/02/26 15:18:04;;;;;;;3.62;1.40;;;;;;;2.09;93.63;99889.28;1709164;84;21115;-66
2023/02/26 15:21:20;;;;;;;3.60;1.70;;;;;;;2.07;93.95;99894.87;1708835;84;21067;-69
2023/02/26 15:23:57;;;;;;;5.10;2.22;;;;;;;2.04;94.07;99900.06;1708542;83;21111;-70
2023/02/26 15:26:37;;;;;;;;;;;;;;;2.04;94.07;99897.48;1711360;84;21079;-68
2023/02/26 15:29:12;;;;;;;6.60;3.22;;;;;;;1.97;93.83;99897.55;1709051;84;20156;-69
2023/02/26 15:32:06;;;;;;;8.43;2.58;;;;;;;1.86;93.81;99901.94;1709170;84;21130;-65
2023/02/26 15:34:37;;;;;;;6.58;2.27;;;;;;;1.79;93.92;99909.28;1709003;84;21083;-67
2023/02/26 15:37:15;;;;;;;5.00;2.22;;;;;;;1.73;94.09;99900.33;1708100;83;21110;-68
2023/02/26 15:39:56;;;;;;;4.60;2.00;;;;;;;1.67;94.11;99905.53;1698655;84;21609;-69
2023/02/26 15:42:32;;;;;;;8.03;2.15;;;;;;;1.58;94.08;99905.62;1706361;84;21094;-69
2023/02/26 15:45:09;;;;;;;7.47;2.55;;;;;;;1.53;94.23;99909.06;1709151;84;21030;-70
2023/02/26 15:47:41;;;;;;;7.22;1.95;;;;;;;1.41;93.98;99914.31;1706009;83;21059;-64
2023/02/26 15:50:16;;;;;;;4.08;2.05;;;;;;;1.36;94.27;99923.77;1706723;84;21097;-56
2023/02/26 15:52:51;;;;;;;3.37;1.65;;;;;;;1.29;94.29;99929.84;1706104;84;21137;-57
2023/02/26 15:55:24;;;;;;;4.15;2.00;;;;;;;1.24;94.46;99921.30;1681637;84;21049;-57
2023/02/26 15:57:57;;;;;;;3.37;1.82;;;;;;;1.16;94.37;99921.77;1706915;83;21142;-58
2023/02/26 16:00:35;;;;;;;6.75;2.15;;;;;;;1.17;94.66;99927.33;1661694;84;21010;-59
2023/02/26 16:03:09;;;;;;;5.03;2.05;;;;;;;1.14;94.56;99933.77;1706505;84;21034;-58
2023/02/26 16:05:47;;;;;;;4.20;2.30;;;;;;;1.13;94.70;99933.36;1706728;83;21049;-59
2023/02/26 16:08:22;;;;;;;6.45;2.40;;;;;;;1.09;94.60;99931.21;1736436;82;21940;-59
2023/02/26 16:11:05;;;;;;;4.78;2.30;;;;;;;1.05;94.76;99941.95;1705916;84;21022;-60
2023/02/26 16:13:36;;;;;;;2.98;1.90;;;;;;;1.03;94.84;99938.97;1704603;83;21050;-62
2023/02/26 16:16:23;;;;;;;6.00;2.52;;;;;;;1.01;94.85;99942.84;1627874;87;21907;-58
2023/02/26 16:19:01;;;;;;;3.92;1.98;;;;;;;0.97;94.84;99942.42;1666383;85;21063;-58
2023/02/26 16:21:37;;;;;;;2.83;1.62;;;;;;;1.00;95.05;99948.84;1667117;86;21174;-58
2023/02/26 16:24:21;;;;;;;5.65;2.22;;;;;;;1.00;95.07;99947.55;1666974;86;21055;-57
2023/02/26 16:27:06;;;;;;;4.90;1.90;;;;;;;0.95;95.03;99954.42;1713749;84;21010;-58
2023/02/26 16:29:41;;;;;;;4.70;1.98;;;;;;;0.93;95.05;99952.31;1712082;83;21066;-58
2023/02/26 16:32:16;;;;;;;3.20;1.77;;;;;;;0.88;95.07;99960.47;1716321;83;21973;-57
2023/02/26 16:34:53;;;;;;;4.75;2.08;;;;;;;0.87;95.21;99966.05;1749447;82;21085;-57
2023/02/26 16:37:31;;;;;;;13.00;2.45;;;;;;;0.82;95.17;99964.36;1720685;82;21556;-61
2023/02/26 16:40:16;;;;;;;2.75;1.72;;;;;;;0.71;95.16;99971.25;1711325;84;21052;-59
2023/02/26 16:42:55;;;;;;;3.12;1.80;;;;;;;0.63;95.27;99979.83;1711199;83;21091;-63
2023/02/26 16:45:41;;;;;;;4.60;2.15;;;;;;;0.55;95.29;99987.98;1711386;83;21043;-57
2023/02/26 16:48:21;;;;;;;3.77;1.50;;;;;;;0.53;95.64;99991.41;1699191;84;21059;-58
2023/02/26 16:51:10;;;;;;;5.35;1.65;;;;;;;0.54;95.68;99996.99;1711118;83;21038;-58
2023/02/26 16:53:57;;;;;;;5.20;1.67;;;;;;;0.52;95.73;99999.55;1711254;83;21131;-58
2023/02/26 16:56:33;;;;;;;4.10;1.60;;;;;;;0.49;95.57;99998.27;1711062;83;21075;-60
2023/02/26 16:59:15;;;;;;;4.28;1.95;;;;;;;0.48;95.65;99995.29;1711439;84;20996;-58
2023/02/26 17:02:13;;;;;;;4.67;2.10;;;;;;;0.49;95.87;99996.99;1654141;86;21099;-57
2023/02/26 17:04:45;;;;;;;4.28;2.02;;;;;;;0.51;95.98;100000.42;1659429;86;21121;-58
2023/02/26 17:07:33;;;;;;;7.87;2.50;;;;;;;0.53;95.99;99998.68;1655461;86;21544;-59
2023/02/26 17:10:22;;;;;;;5.37;2.47;;;;;;;0.50;95.88;99998.69;1654711;86;21085;-58
2023/02/26 17:12:58;;;;;;;6.28;2.30;;;;;;;0.55;96.09;100005.97;1652475;86;21313;-61
2023/02/26 17:15:36;;;;;;;10.25;3.00;;;;;;;0.55;96.15;100008.53;1653538;86;21970;-61
2023/02/26 17:18:11;;;;;;;11.75;2.30;;;;;;;0.58;96.12;100011.53;1654503;86;21051;-59
2023/02/26 17:20:46;;;;;;;9.18;2.40;;;;;;;0.53;96.28;100013.25;1645955;87;21836;-58
2023/02/26 17:23:26;;;;;;;4.78;2.30;;;;;;;0.57;96.46;100015.82;1676465;85;21177;-58
2023/02/26 17:25:55;;;;;;;;;;;;;;;0.55;96.37;100031.66;1634635;86;21093;-58
2023/02/26 17:28:35;;;;;;;4.83;2.08;;;;;;;0.56;96.52;100024.40;1676286;85;20171;-59
2023/02/26 17:31:11;;;;;;;5.30;2.47;;;;;;;0.54;96.48;100032.97;1654598;87;21044;-58
2023/02/26 17:33:45;;;;;;;7.12;2.67;;;;;;;0.52;96.50;100033.39;1657737;86;21073;-61
2023/02/26 17:36:25;;;;;;;7.47;3.12;;;;;;;0.55;96.63;100037.23;1654657;87;21060;-58
2023/02/26 17:39:04;;;;;;;10.88;4.12;;;;;;;0.56;96.53;100033.80;1702970;82;21916;-59
2023/02/26 17:41:33;;;;;;;8.28;3.42;;;;;;;0.56;96.64;100032.11;1707730;84;21893;-61
2023/02/26 17:44:05;;;;;;;9.93;4.37;;;;;;;0.57;96.69;100035.52;1708807;83;21020;-58
2023/02/26 17:46:39;;;;;;;8.45;4.70;;;;;;;0.56;96.65;100034.67;1708825;84;21090;-59
2023/02/26 17:49:13;;;;;;;10.80;5.05;;;;;;;0.53;96.58;100037.22;1708645;83;21389;-61
2023/02/26 17:55:47;;;;;;;14.68;6.55;;;;;;;0.51;96.64;100046.67;1708624;84;21056;-63
2023/02/26 17:58:30;;;;;;;13.28;6.83;;;;;;;0.50;96.64;100053.08;1708430;84;21115;-60
2023/02/26 18:01:07;;;;;;;12.07;6.08;;;;;;;0.43;96.45;100054.81;1709130;84;21568;-60
2023/02/26 18:03:40;;;;;;;12.63;5.90;;;;;;;0.43;96.69;100054.81;1709142;84;21123;-63
2023/02/26 18:06:16;;;;;;;13.30;7.35;;;;;;;0.40;96.65;100049.67;1708984;84;21012;-59
2023/02/26 18:08:53;;;;;;;10.18;5.92;;;;;;;0.39;96.84;100055.25;1667700;84;21838;-59
2023/02/26 18:11:25;;;;;;;12.03;5.60;;;;;;;0.41;96.93;100059.09;1688677;84;21908;-59
2023/02/26 18:14:00;;;;;;;13.15;5.83;;;;;;;0.45;96.95;100069.80;1708558;83;21091;-63
2023/02/26 18:16:37;;;;;;;14.98;6.37;;;;;;;0.49;96.98;100076.64;1665864;84;21079;-58
2023/02/26 18:19:17;;;;;;;13.20;6.90;;;;;;;0.52;96.97;100071.49;1708872;84;21075;-64